Time;durP1;ratioP1;P1;durP2;ratioP2;P2;SDS_P1;SDS_P2;PMS_P1;PMS_P2;Temp;Humidity;BMP_temperature;BMP_pressure;BME280_temperature;BME280_humidity;BME280_pressure;Samples;Min_cycle;Max_cycle;Signal;HPM_P1;HPM_P2
2022/08/01 00:00:49;;;;;;;2.20;1.00;;;;;;;18.55;100.00;101691.81;5092330;28;20071;-29
2022/08/01 00:03:17;;;;;;;1.45;0.85;;;;;;;18.56;100.00;101687.00;5091691;28;20071;-37
2022/08/01 00:05:45;;;;;;;1.92;1.05;;;;;;;18.56;100.00;101687.00;5081552;28;20063;-33
2022/08/01 00:08:12;;;;;;;1.88;1.02;;;;;;;18.56;100.00;101685.00;5092007;28;20070;-35
2022/08/01 00:10:42;;;;;;;1.45;0.90;;;;;;;18.58;100.00;101693.94;5091564;28;20050;-36
2022/08/01 00:13:09;;;;;;;2.05;0.80;;;;;;;18.58;100.00;101695.97;5092068;28;20060;-32
2022/08/01 00:15:37;;;;;;;2.10;0.80;;;;;;;18.60;100.00;101696.47;5088043;28;20044;-29
2022/08/01 00:18:05;;;;;;;2.90;0.90;;;;;;;18.62;100.00;101694.16;5091771;28;20052;-29
2022/08/01 00:20:33;;;;;;;2.67;0.90;;;;;;;18.64;100.00;101696.66;5091786;28;20039;-32
2022/08/01 00:23:03;;;;;;;1.83;0.90;;;;;;;18.67;100.00;101693.16;5091888;28;20142;-29
2022/08/01 00:25:31;;;;;;;2.78;0.90;;;;;;;18.67;100.00;101695.97;5090963;28;20059;-31
2022/08/01 00:28:02;;;;;;;1.75;1.20;;;;;;;18.68;100.00;101704.13;5091725;28;20052;-35
2022/08/01 00:30:31;;;;;;;2.45;1.20;;;;;;;18.69;100.00;101713.44;5090756;28;20569;-35
2022/08/01 00:32:59;;;;;;;3.25;1.40;;;;;;;18.68;100.00;101709.78;5091932;28;20044;-38
2022/08/01 00:35:27;;;;;;;3.03;1.20;;;;;;;18.67;100.00;101702.47;5091545;28;20052;-34
2022/08/01 00:37:55;;;;;;;3.13;1.40;;;;;;;18.66;100.00;101702.81;5091276;28;20051;-33
2022/08/01 00:40:23;;;;;;;3.30;1.50;;;;;;;18.66;100.00;101706.47;5091314;28;20055;-31
2022/08/01 00:42:50;;;;;;;3.00;1.45;;;;;;;18.66;100.00;101708.47;5091793;28;20055;-34
2022/08/01 00:45:20;;;;;;;3.17;1.25;;;;;;;18.65;100.00;101707.63;5091321;28;20756;-31
2022/08/01 00:47:47;;;;;;;2.78;1.17;;;;;;;18.65;100.00;101703.97;5091561;28;20060;-30
2022/08/01 00:50:22;;;;;;;4.07;1.42;;;;;;;18.62;100.00;101708.28;5091644;28;20064;-31
2022/08/01 00:52:51;;;;;;;3.15;1.40;;;;;;;18.62;100.00;101707.44;5090854;28;20105;-30
2022/08/01 00:55:20;;;;;;;2.45;1.50;;;;;;;18.60;100.00;101713.44;5091298;28;20052;-33
2022/08/01 00:57:49;;;;;;;3.58;1.35;;;;;;;18.59;100.00;101717.44;5091408;28;20052;-32
2022/08/01 01:00:35;;;;;;;3.08;1.60;;;;;;;18.57;100.00;101708.44;5090757;28;20043;-34
2022/08/01 01:03:21;;;;;;;2.97;1.55;;;;;;;18.53;100.00;101713.94;5091569;28;20075;-34
2022/08/01 01:06:13;;;;;;;3.20;1.80;;;;;;;18.51;100.00;101704.09;5090890;28;20036;-33
2022/08/01 01:08:55;;;;;;;3.20;1.77;;;;;;;18.46;100.00;101702.28;5091449;28;20052;-31
2022/08/01 01:11:29;;;;;;;2.50;1.60;;;;;;;18.41;100.00;101710.06;5091112;28;20040;-30
2022/08/01 01:14:05;;;;;;;4.55;2.13;;;;;;;18.39;100.00;101712.41;5090740;28;20063;-30
2022/08/01 01:16:35;;;;;;;4.43;2.28;;;;;;;18.36;100.00;101711.09;5091426;28;20048;-30
2022/08/01 01:19:09;;;;;;;4.72;1.98;;;;;;;18.35;100.00;101708.59;5091175;28;20046;-39
2022/08/01 01:21:54;;;;;;;4.13;2.33;;;;;;;18.35;100.00;101705.78;5090611;28;20044;-34
2022/08/01 01:24:33;;;;;;;5.78;2.45;;;;;;;18.33;100.00;101706.09;5091247;28;20048;-31
2022/08/01 01:27:11;;;;;;;4.25;2.42;;;;;;;18.34;100.00;101712.59;5090749;28;20051;-30
2022/08/01 01:29:43;;;;;;;3.90;2.35;;;;;;;18.32;100.00;101718.56;5091407;28;20393;-30
2022/08/01 01:32:34;;;;;;;5.60;2.10;;;;;;;18.31;100.00;101707.59;5090137;28;20481;-30
2022/08/01 01:35:07;;;;;;;3.88;2.20;;;;;;;18.31;100.00;101713.25;5091131;28;20105;-31
2022/08/01 01:37:36;;;;;;;5.25;2.67;;;;;;;18.29;100.00;101716.41;5092590;28;20404;-31
2022/08/01 01:40:06;;;;;;;5.82;2.60;;;;;;;18.28;100.00;101713.91;5095110;28;20059;-29
2022/08/01 01:42:35;;;;;;;7.25;2.95;;;;;;;18.26;100.00;101717.06;5094199;28;20044;-33
2022/08/01 01:45:07;;;;;;;7.00;3.20;;;;;;;18.25;100.00;101716.22;5094837;28;20056;-30
2022/08/01 01:47:37;;;;;;;7.10;2.90;;;;;;;18.22;100.00;101716.88;5094111;28;20056;-42
2022/08/01 01:50:08;;;;;;;7.30;2.97;;;;;;;18.21;100.00;101718.03;5094638;28;20528;-30
2022/08/01 01:52:39;;;;;;;11.20;3.30;;;;;;;18.20;100.00;101716.38;5094778;28;20464;-34
2022/08/01 01:55:10;;;;;;;6.78;2.33;;;;;;;18.17;100.00;101721.88;5094060;28;20044;-31
2022/08/01 01:57:41;;;;;;;5.15;2.30;;;;;;;18.15;100.00;101718.53;5094310;28;20512;-35
2022/08/01 02:00:12;;;;;;;5.22;2.30;;;;;;;18.15;100.00;101733.50;5094774;28;20048;-32
2022/08/01 02:02:41;;;;;;;6.40;2.73;;;;;;;18.11;100.00;101729.66;5093975;28;20044;-30
2022/08/01 02:05:11;;;;;;;6.47;2.70;;;;;;;18.11;100.00;101729.66;5094751;28;20059;-29
2022/08/01 02:07:40;;;;;;;6.65;2.60;;;;;;;18.09;100.00;101740.47;5094076;28;20043;-30
2022/08/01 02:10:10;;;;;;;10.48;2.90;;;;;;;18.07;100.00;101751.25;5093685;28;20051;-30
2022/08/01 02:12:42;;;;;;;7.95;2.33;;;;;;;18.06;100.00;101746.75;5094436;28;20047;-30
2022/08/01 02:15:12;;;;;;;11.23;3.13;;;;;;;18.04;100.00;101740.59;5094427;28;20048;-34
2022/08/01 02:17:46;;;;;;;11.82;3.05;;;;;;;18.02;100.00;101745.75;5093530;28;20056;-37
2022/08/01 02:20:14;;;;;;;10.88;2.60;;;;;;;18.00;100.00;101748.06;5094394;28;20056;-38
2022/08/01 02:22:45;;;;;;;9.50;2.90;;;;;;;17.99;100.00;101749.22;5093263;28;20055;-34
2022/08/01 02:25:21;;;;;;;9.38;2.70;;;;;;;17.96;100.00;101749.06;5094146;28;20055;-36
2022/08/01 02:27:57;;;;;;;6.93;2.67;;;;;;;17.94;100.00;101746.56;5094086;28;20048;-34
2022/08/01 02:30:26;;;;;;;8.52;2.50;;;;;;;17.93;100.00;101749.72;5093328;28;20048;-31
2022/08/01 02:33:01;;;;;;;9.38;2.88;;;;;;;17.91;100.00;101747.22;5093652;28;20052;-36
2022/08/01 02:35:32;;;;;;;10.07;3.20;;;;;;;17.90;100.00;101759.66;5093797;28;20072;-30
2022/08/01 02:38:04;;;;;;;5.93;2.35;;;;;;;17.88;100.00;101757.16;5093426;28;20050;-32
2022/08/01 02:40:34;;;;;;;7.32;2.60;;;;;;;17.88;100.00;101759.16;5090978;28;20040;-33
2022/08/01 02:43:04;;;;;;;7.57;2.38;;;;;;;17.88;100.00;101762.81;5093447;28;20396;-37
2022/08/01 02:45:36;;;;;;;6.38;2.30;;;;;;;17.88;100.00;101770.47;5092490;28;20047;-35
2022/08/01 02:48:10;;;;;;;6.05;1.98;;;;;;;17.87;100.00;101763.97;5093808;28;20044;-38
2022/08/01 02:50:39;;;;;;;7.63;2.22;;;;;;;17.86;100.00;101765.13;5092326;28;20043;-30
2022/08/01 02:53:09;;;;;;;6.55;2.10;;;;;;;17.86;100.00;101779.25;5093009;28;20142;-35
2022/08/01 02:55:40;;;;;;;5.55;2.00;;;;;;;17.86;100.00;101772.78;5093300;28;20509;-34
2022/08/01 02:58:10;;;;;;;9.82;2.70;;;;;;;17.85;100.00;101776.75;5092837;28;20052;-34
2022/08/01 03:00:42;;;;;;;10.98;2.90;;;;;;;17.82;100.00;101772.59;5093334;28;20082;-30
2022/08/01 03:03:11;;;;;;;8.80;2.33;;;;;;;17.80;100.00;101774.91;5093646;28;20071;-30
2022/08/01 03:05:40;;;;;;;6.75;2.00;;;;;;;17.79;100.00;101775.22;5092360;28;20048;-39
2022/08/01 03:08:09;;;;;;;7.68;2.25;;;;;;;17.77;100.00;101786.88;5073231;28;20048;-30
2022/08/01 03:10:43;;;;;;;9.70;2.45;;;;;;;17.74;100.00;101778.22;5088096;28;20551;-37
2022/08/01 03:13:13;;;;;;;10.23;2.17;;;;;;;17.72;100.00;101780.53;5092841;28;20394;-37
2022/08/01 03:15:45;;;;;;;10.95;2.55;;;;;;;17.72;100.00;101780.53;5093343;28;20051;-39
2022/08/01 03:18:15;;;;;;;10.57;2.50;;;;;;;17.68;100.00;101785.97;5092598;28;20044;-31
2022/08/01 03:20:44;;;;;;;19.42;2.90;;;;;;;17.67;100.00;101786.31;5092448;28;20077;-34
2022/08/01 03:23:13;;;;;;;11.10;2.20;;;;;;;17.63;100.00;101786.09;5093224;28;20047;-36
2022/08/01 03:25:44;;;;;;;8.52;2.22;;;;;;;17.61;100.00;101796.88;5092615;28;20051;-33
2022/08/01 03:28:14;;;;;;;7.82;1.88;;;;;;;17.58;100.00;101787.06;5092744;28;20040;-32
2022/08/01 03:30:45;;;;;;;9.15;2.00;;;;;;;17.58;100.00;101799.53;5092821;28;20047;-41
2022/08/01 03:33:13;;;;;;;5.90;1.70;;;;;;;17.52;100.00;101790.34;5091990;28;20048;-30
2022/08/01 03:35:48;;;;;;;6.63;1.77;;;;;;;17.50;100.00;101799.16;5092551;28;20040;-33
2022/08/01 03:38:22;;;;;;;6.38;1.63;;;;;;;17.48;100.00;101800.63;5092977;28;20051;-32
2022/08/01 03:40:54;;;;;;;9.05;2.13;;;;;;;17.48;100.00;101806.25;5091969;28;20436;-35
2022/08/01 03:43:27;;;;;;;8.23;1.80;;;;;;;17.46;100.00;101802.94;5092805;28;20678;-30
2022/08/01 03:46:01;;;;;;;6.20;2.00;;;;;;;17.45;100.00;101812.53;5091943;28;20044;-32
2022/08/01 03:48:33;;;;;;;7.53;1.80;;;;;;;17.43;100.00;101814.84;5092194;28;20420;-33
2022/08/01 03:51:02;;;;;;;8.40;1.90;;;;;;;17.40;100.00;101802.22;5092420;28;20082;-30
2022/08/01 03:53:32;;;;;;;9.80;1.85;;;;;;;17.41;100.00;101809.53;5092331;28;20059;-30
2022/08/01 03:56:01;;;;;;;10.77;2.00;;;;;;;17.40;100.00;101819.16;5091859;28;20530;-34
2022/08/01 03:58:29;;;;;;;5.60;1.60;;;;;;;17.38;100.00;101817.84;5080847;28;20048;-40
2022/08/01 04:00:59;;;;;;;9.45;1.92;;;;;;;17.36;100.00;101820.97;5091650;28;21117;-33
2022/08/01 04:03:28;;;;;;;9.75;1.77;;;;;;;17.34;100.00;101817.63;5091794;28;20043;-30
2022/08/01 04:05:56;;;;;;;5.88;1.60;;;;;;;17.34;100.00;101819.63;5092128;28;20048;-39
2022/08/01 04:08:23;;;;;;;5.50;1.40;;;;;;;17.32;100.00;101817.13;5091418;28;20052;-30
2022/08/01 04:10:58;;;;;;;8.00;1.77;;;;;;;17.28;100.00;101818.09;5092177;28;20482;-35
2022/08/01 04:13:26;;;;;;;6.00;1.30;;;;;;;17.26;100.00;101820.38;5091098;28;20056;-30
2022/08/01 04:16:05;;;;;;;9.25;1.60;;;;;;;17.25;100.00;101825.19;5091517;28;20131;-35
2022/08/01 04:18:34;;;;;;;6.80;1.90;;;;;;;17.26;100.00;101814.75;5090810;28;20036;-36
2022/08/01 04:21:01;;;;;;;7.85;1.67;;;;;;;17.26;100.00;101826.03;5091763;28;20665;-33
2022/08/01 04:23:33;;;;;;;7.93;1.90;;;;;;;17.25;100.00;101828.00;5091100;28;20413;-40
2022/08/01 04:26:05;;;;;;;7.68;1.95;;;;;;;17.24;100.00;101826.34;5092104;28;20048;-30
2022/08/01 04:28:35;;;;;;;;;;;;;;;17.17;100.00;101831.63;5092178;28;20429;-30
2022/08/01 04:31:09;;;;;;;6.47;1.50;;;;;;;17.16;100.00;101833.63;5091490;28;19949;-34
2022/08/01 04:33:39;;;;;;;8.90;1.80;;;;;;;17.19;100.00;101843.41;5091454;28;20083;-32
2022/08/01 04:36:09;;;;;;;9.60;2.42;;;;;;;17.19;100.00;101849.88;5091476;28;20048;-30
2022/08/01 04:38:37;;;;;;;7.93;1.73;;;;;;;17.21;100.00;101849.56;5091215;28;20056;-30
2022/08/01 04:41:07;;;;;;;8.85;1.60;;;;;;;17.20;100.00;101856.34;5091886;28;20047;-35
2022/08/01 04:43:37;;;;;;;10.43;2.10;;;;;;;17.18;100.00;101856.69;5091015;28;20226;-32
2022/08/01 04:46:06;;;;;;;8.13;1.45;;;;;;;17.19;100.00;101849.03;5091409;28;20151;-29
2022/08/01 04:48:38;;;;;;;6.93;1.60;;;;;;;17.18;100.00;101850.22;5091492;28;20080;-31
2022/08/01 04:51:13;;;;;;;9.80;1.52;;;;;;;17.17;100.00;101857.00;5091444;28;20102;-32
2022/08/01 04:53:42;;;;;;;7.38;1.52;;;;;;;17.16;100.00;101852.53;5091580;28;20044;-31
2022/08/01 04:56:12;;;;;;;6.82;1.50;;;;;;;17.17;100.00;101851.38;5079696;28;20055;-31
2022/08/01 04:58:41;;;;;;;6.32;1.55;;;;;;;17.18;100.00;101859.50;5079757;28;20056;-31
2022/08/01 05:01:11;;;;;;;10.43;2.10;;;;;;;17.18;100.00;101864.31;5090360;28;20048;-34
2022/08/01 05:03:39;;;;;;;10.20;2.20;;;;;;;17.15;100.00;101860.16;5090181;28;20058;-33
2022/08/01 05:06:07;;;;;;;6.75;1.70;;;;;;;17.13;100.00;101864.44;5088541;28;20059;-31
2022/08/01 05:08:35;;;;;;;8.95;1.55;;;;;;;17.12;100.00;101860.78;5090262;28;20048;-34
2022/08/01 05:11:04;;;;;;;9.32;1.80;;;;;;;17.13;100.00;101864.44;5090755;28;20131;-34
2022/08/01 05:13:32;;;;;;;6.35;1.27;;;;;;;17.12;100.00;101871.22;5093616;28;20044;-37
2022/08/01 05:16:00;;;;;;;5.28;1.50;;;;;;;17.11;100.00;101863.91;5094601;28;20052;-31
2022/08/01 05:18:29;;;;;;;10.55;2.05;;;;;;;17.11;100.00;101875.19;5094138;28;20529;-33
2022/08/01 05:20:57;;;;;;;7.05;1.38;;;;;;;17.08;100.00;101867.38;5094120;28;20079;-30
2022/08/01 05:23:25;;;;;;;7.97;2.10;;;;;;;17.04;100.00;101869.16;5094218;28;20044;-33
2022/08/01 05:26:10;;;;;;;8.43;1.63;;;;;;;17.00;100.00;101868.94;5092440;28;20044;-31
2022/08/01 05:28:41;;;;;;;11.57;2.15;;;;;;;16.99;100.00;101874.91;5094647;28;20451;-34
2022/08/01 05:31:09;;;;;;;10.35;2.00;;;;;;;16.99;100.00;101877.72;5090335;28;20044;-37
2022/08/01 05:33:38;;;;;;;7.25;1.63;;;;;;;16.97;100.00;101874.41;5092630;28;20489;-30
2022/08/01 05:36:06;;;;;;;7.85;1.52;;;;;;;16.95;100.00;101877.56;5093651;28;20103;-35
2022/08/01 05:38:34;;;;;;;9.13;1.60;;;;;;;16.95;100.00;101871.09;5092794;28;20064;-30
2022/08/01 05:41:02;;;;;;;5.28;1.35;;;;;;;16.95;100.00;101869.09;5093367;28;20055;-30
2022/08/01 05:43:30;;;;;;;7.30;1.67;;;;;;;16.97;100.00;101868.78;5093775;28;20071;-37
2022/08/01 05:45:58;;;;;;;4.93;1.33;;;;;;;16.98;100.00;101864.81;5093368;28;20059;-35
2022/08/01 05:48:26;;;;;;;7.50;1.40;;;;;;;17.02;100.00;101879.91;5093260;28;20135;-36
2022/08/01 05:50:55;;;;;;;9.10;1.58;;;;;;;17.03;100.00;101875.94;5093473;28;20469;-31
2022/08/01 05:53:25;;;;;;;8.35;2.05;;;;;;;17.03;100.00;101879.59;5093684;28;20056;-38
2022/08/01 05:55:53;;;;;;;6.70;1.63;;;;;;;17.03;100.00;101876.78;5092880;28;20048;-30
2022/08/01 05:58:21;;;;;;;7.10;1.60;;;;;;;17.04;100.00;101875.63;5093854;28;20040;-31
2022/08/01 06:00:49;;;;;;;6.32;1.50;;;;;;;17.04;100.00;101884.09;5093054;28;20048;-40
2022/08/01 06:03:16;;;;;;;7.97;1.65;;;;;;;17.06;100.00;101883.78;5092239;28;20059;-31
2022/08/01 06:05:44;;;;;;;7.10;1.70;;;;;;;17.09;100.00;101885.97;5093344;28;20497;-37
2022/08/01 06:08:13;;;;;;;6.03;1.48;;;;;;;17.13;100.00;101887.00;5092235;28;20450;-30
2022/08/01 06:10:41;;;;;;;7.68;1.80;;;;;;;17.16;100.00;101889.19;5093279;28;20058;-34
2022/08/01 06:13:09;;;;;;;8.27;2.05;;;;;;;17.19;100.00;101891.34;5093079;28;20040;-31
2022/08/01 06:15:37;;;;;;;6.28;1.40;;;;;;;17.25;100.00;101886.41;5092683;28;20139;-37
2022/08/01 06:18:04;;;;;;;10.63;1.80;;;;;;;17.28;100.00;101891.44;5091980;28;20051;-32
2022/08/01 06:20:32;;;;;;;8.23;1.83;;;;;;;17.29;100.00;101893.94;5092844;28;20071;-30
2022/08/01 06:23:00;;;;;;;10.20;2.03;;;;;;;17.32;100.00;101898.94;5092248;28;20036;-39
2022/08/01 06:25:49;;;;;;;9.32;1.88;;;;;;;17.36;100.00;101899.97;5093181;28;20040;-39
2022/08/01 06:28:18;;;;;;;4.93;1.55;;;;;;;17.40;100.00;101900.97;5092952;28;20048;-34
2022/08/01 06:30:46;;;;;;;7.65;1.63;;;;;;;17.46;100.00;101902.53;5092641;28;20066;-32
2022/08/01 06:33:14;;;;;;;7.20;1.55;;;;;;;17.59;100.00;101906.44;5091558;28;20036;-34
2022/08/01 06:35:42;;;;;;;7.95;1.77;;;;;;;17.79;100.00;101907.94;5092817;28;20048;-36
2022/08/01 06:38:10;;;;;;;7.88;1.65;;;;;;;17.99;100.00;101909.38;5092435;28;20056;-30
2022/08/01 06:40:38;;;;;;;10.15;1.73;;;;;;;18.30;100.00;101906.56;5092871;28;20048;-32
2022/08/01 06:43:07;;;;;;;9.02;1.80;;;;;;;18.80;100.00;101916.38;5091467;28;20052;-31
2022/08/01 06:45:36;;;;;;;8.13;1.52;;;;;;;19.27;100.00;101913.78;5093179;28;20062;-38
2022/08/01 06:48:04;;;;;;;7.40;1.75;;;;;;;19.81;100.00;101920.75;5092406;28;20056;-32
2022/08/01 06:50:35;;;;;;;8.23;1.88;;;;;;;20.39;100.00;101924.13;5092291;28;20044;-31
2022/08/01 06:53:03;;;;;;;8.90;1.83;;;;;;;21.09;100.00;101925.41;5092510;28;20059;-31
2022/08/01 06:55:31;;;;;;;7.85;1.50;;;;;;;21.68;100.00;101926.09;5091985;28;20052;-31
2022/08/01 06:57:59;;;;;;;8.00;1.48;;;;;;;21.86;100.00;101921.91;5092101;28;20044;-30
2022/08/01 07:00:28;;;;;;;8.10;1.48;;;;;;;21.88;100.00;101924.41;5092619;28;20066;-33
2022/08/01 07:02:58;;;;;;;6.70;1.90;;;;;;;21.83;100.00;101927.44;5091876;28;20066;-37
2022/08/01 07:05:26;;;;;;;5.93;1.38;;;;;;;21.93;100.00;101924.19;5091965;28;20160;-39
2022/08/01 07:07:55;;;;;;;3.90;1.40;;;;;;;22.25;100.00;101925.34;5091986;28;20054;-31
2022/08/01 07:10:23;;;;;;;7.00;1.20;;;;;;;22.58;100.00;101933.81;5092119;28;20052;-37
2022/08/01 07:12:50;;;;;;;6.22;1.42;;;;;;;22.97;100.00;101935.97;5091622;28;20044;-30
2022/08/01 07:15:20;;;;;;;6.97;1.73;;;;;;;23.29;98.55;101928.41;5092302;28;20060;-35
2022/08/01 07:17:49;;;;;;;5.28;1.40;;;;;;;23.70;96.79;101927.25;5091748;28;20043;-32
2022/08/01 07:20:17;;;;;;;7.10;1.45;;;;;;;24.24;94.95;101938.13;5091330;28;20059;-30
2022/08/01 07:22:46;;;;;;;5.43;1.40;;;;;;;24.70;91.86;101932.81;5091787;28;20040;-31
2022/08/01 07:25:15;;;;;;;8.25;1.35;;;;;;;25.05;87.06;101925.13;5091110;28;20044;-30
2022/08/01 07:27:43;;;;;;;6.35;1.25;;;;;;;25.45;85.23;101929.69;5092371;28;20063;-32
2022/08/01 07:30:11;;;;;;;6.50;1.80;;;;;;;25.94;80.45;101923.41;5091856;28;20044;-31
2022/08/01 07:32:39;;;;;;;6.85;1.50;;;;;;;26.37;77.87;101922.22;5088526;28;20409;-31
2022/08/01 07:35:09;;;;;;;4.75;1.17;;;;;;;26.87;74.40;101932.44;5090732;28;20044;-31
2022/08/01 07:37:37;;;;;;;7.35;1.35;;;;;;;27.17;71.10;101931.72;5093052;28;20070;-31
2022/08/01 07:40:16;;;;;;;4.95;1.15;;;;;;;27.42;68.92;101941.47;5091718;28;20130;-33
2022/08/01 07:42:44;;;;;;;6.13;1.02;;;;;;;27.41;66.68;101948.41;5092868;28;20048;-32
2022/08/01 07:45:13;;;;;;;5.70;1.40;;;;;;;27.35;65.38;101947.13;5092335;28;20055;-40
2022/08/01 07:47:41;;;;;;;7.68;1.30;;;;;;;27.43;65.26;101948.88;5092330;28;20052;-40
2022/08/01 07:50:12;;;;;;;5.65;1.10;;;;;;;27.70;64.07;101953.38;5092561;28;20051;-37
2022/08/01 07:52:40;;;;;;;6.45;1.27;;;;;;;27.92;62.26;101960.19;5092352;28;20449;-40
2022/08/01 07:55:09;;;;;;;5.65;1.20;;;;;;;28.20;60.98;101953.13;5091912;28;20056;-31
2022/08/01 07:57:37;;;;;;;5.50;1.33;;;;;;;28.48;60.15;101950.56;5092653;28;20044;-32
2022/08/01 08:00:06;;;;;;;3.78;1.00;;;;;;;28.76;58.67;101950.84;5091987;28;20400;-38
2022/08/01 08:02:34;;;;;;;3.15;1.00;;;;;;;28.96;56.77;101951.44;5092218;28;20135;-41
2022/08/01 08:05:01;;;;;;;5.72;1.38;;;;;;;29.06;54.97;101962.16;5092108;28;20048;-32
2022/08/01 08:07:31;;;;;;;3.33;1.00;;;;;;;29.14;53.58;101952.38;5091694;28;20062;-37
2022/08/01 08:09:59;;;;;;;5.43;1.20;;;;;;;29.40;54.30;101957.06;5092179;28;20052;-32
2022/08/01 08:12:27;;;;;;;4.10;1.00;;;;;;;29.72;53.09;101965.88;5092048;28;20150;-34
2022/08/01 08:14:58;;;;;;;4.95;1.10;;;;;;;29.96;51.42;101952.81;5091611;28;20097;-32
2022/08/01 08:17:26;;;;;;;5.22;1.10;;;;;;;30.18;51.24;101962.34;5092564;28;20048;-40
2022/08/01 08:19:54;;;;;;;4.80;1.33;;;;;;;30.29;48.46;101954.56;5091879;28;20078;-32
2022/08/01 08:22:21;;;;;;;5.03;1.10;;;;;;;30.33;49.07;101964.03;5090694;28;20056;-33
2022/08/01 08:24:51;;;;;;;4.60;1.15;;;;;;;30.39;47.70;101965.25;5091876;28;20051;-38
2022/08/01 08:27:18;;;;;;;4.72;1.40;;;;;;;30.45;47.40;101957.88;5091542;28;20055;-34
2022/08/01 08:29:46;;;;;;;5.65;1.10;;;;;;;30.46;47.32;101970.22;5091369;28;20048;-34
2022/08/01 08:32:14;;;;;;;5.55;1.20;;;;;;;30.44;46.08;101967.75;5091863;28;20052;-38
2022/08/01 08:34:42;;;;;;;5.13;1.13;;;;;;;30.38;46.10;101966.50;5091757;28;20043;-34
2022/08/01 08:37:11;;;;;;;5.47;1.15;;;;;;;30.45;45.30;101968.56;5091391;28;20416;-32
2022/08/01 08:39:38;;;;;;;5.55;1.00;;;;;;;30.54;45.30;101973.94;5091912;28;20058;-32
2022/08/01 08:42:11;;;;;;;3.83;0.95;;;;;;;30.65;43.71;101972.75;5091346;28;20143;-32
2022/08/01 08:44:40;;;;;;;4.40;1.27;;;;;;;30.56;43.03;101962.88;5083298;28;20047;-35
2022/08/01 08:47:12;;;;;;;5.40;1.17;;;;;;;30.13;43.29;101977.16;5088220;28;20048;-33
2022/08/01 08:49:48;;;;;;;4.93;1.35;;;;;;;29.85;43.88;101986.47;5090296;28;20127;-32
2022/08/01 08:52:18;;;;;;;4.70;1.15;;;;;;;29.84;44.28;101984.81;5090373;28;20134;-32
2022/08/01 08:54:47;;;;;;;3.63;0.93;;;;;;;29.92;43.44;101979.94;5090717;28;20047;-31
2022/08/01 08:57:19;;;;;;;5.78;1.13;;;;;;;29.96;42.97;101980.78;5089621;28;20040;-34
2022/08/01 08:59:47;;;;;;;4.38;1.00;;;;;;;29.93;43.49;101973.78;5090676;28;20049;-34
2022/08/01 09:02:15;;;;;;;4.43;0.90;;;;;;;29.81;44.20;101974.94;5089877;28;20056;-37
2022/08/01 09:04:42;;;;;;;4.15;1.20;;;;;;;29.71;44.78;101987.25;5089679;28;20056;-32
2022/08/01 09:07:11;;;;;;;4.20;1.25;;;;;;;29.62;43.94;101986.78;5090211;28;20481;-36
2022/08/01 09:09:39;;;;;;;6.03;1.40;;;;;;;29.41;43.78;101981.72;5090477;28;20052;-33
2022/08/01 09:12:08;;;;;;;3.83;1.20;;;;;;;29.23;44.25;101989.38;5089758;28;20060;-33
2022/08/01 09:14:46;;;;;;;6.53;1.20;;;;;;;29.13;43.86;101982.34;5088842;28;20055;-37
2022/08/01 09:17:14;;;;;;;6.53;1.27;;;;;;;29.24;45.76;101979.53;5083319;28;20055;-38
2022/08/01 09:19:44;;;;;;;6.75;1.23;;;;;;;29.57;44.42;101986.34;5089762;28;20048;-38
2022/08/01 09:22:17;;;;;;;4.60;1.08;;;;;;;29.72;43.68;101991.78;5090301;28;20058;-33
2022/08/01 09:24:58;;;;;;;5.40;1.08;;;;;;;29.91;42.68;101992.66;5089954;28;20103;-39
2022/08/01 09:27:26;;;;;;;4.68;1.50;;;;;;;30.03;43.13;102000.97;5090480;28;20456;-35
2022/08/01 09:30:07;;;;;;;6.38;1.55;;;;;;;30.13;42.51;102003.06;5090250;28;20135;-32
2022/08/01 09:32:35;;;;;;;;;;;;;;;30.04;39.27;101996.84;5089852;28;20044;-31
2022/08/01 09:35:23;;;;;;;4.85;1.27;;;;;;;29.70;39.47;102002.03;5090045;28;20305;-32
2022/08/01 09:38:14;;;;;;;4.93;1.10;;;;;;;29.29;43.58;102005.03;5089781;28;20509;-35
2022/08/01 09:40:49;;;;;;;5.53;1.45;;;;;;;29.37;42.84;102011.69;5088261;28;20044;-35
2022/08/01 09:43:18;;;;;;;4.90;1.10;;;;;;;29.34;43.73;102012.47;5090182;28;20047;-33
2022/08/01 09:45:47;;;;;;;5.13;1.10;;;;;;;29.60;43.50;102009.38;5089921;28;20040;-38
2022/08/01 09:48:20;;;;;;;3.28;1.00;;;;;;;29.84;42.70;102007.84;5089799;28;20078;-33
2022/08/01 09:50:58;;;;;;;3.85;1.00;;;;;;;29.84;42.34;102016.47;5090106;28;20079;-32
2022/08/01 09:53:44;;;;;;;3.85;1.00;;;;;;;29.81;43.09;102015.22;5089495;28;20051;-33
2022/08/01 09:56:19;;;;;;;6.45;1.20;;;;;;;29.79;42.43;102011.94;5090105;28;20044;-32
2022/08/01 09:58:51;;;;;;;4.57;0.90;;;;;;;29.77;42.00;102017.28;5092406;28;20048;-32
2022/08/01 10:01:28;;;;;;;5.43;1.00;;;;;;;29.78;40.81;102009.44;5093307;28;20044;-33
2022/08/01 10:04:10;;;;;;;3.97;1.08;;;;;;;29.90;41.32;102014.03;5093735;28;20044;-35
2022/08/01 10:06:39;;;;;;;4.25;1.23;;;;;;;30.07;40.75;102008.38;5093384;28;20044;-42
2022/08/01 10:09:08;;;;;;;4.15;1.15;;;;;;;30.11;40.32;102008.41;5092520;28;20064;-36
2022/08/01 10:11:38;;;;;;;4.80;1.15;;;;;;;29.88;39.95;102014.44;5093461;28;20135;-33
2022/08/01 10:14:07;;;;;;;4.57;1.20;;;;;;;29.76;40.83;102007.00;5092708;28;20048;-34
2022/08/01 10:16:37;;;;;;;3.15;1.10;;;;;;;29.85;41.00;102012.38;5093389;28;20066;-32
2022/08/01 10:19:07;;;;;;;3.60;0.93;;;;;;;30.03;40.07;102015.34;5093014;28;20047;-37
2022/08/01 10:21:44;;;;;;;5.47;0.95;;;;;;;30.04;40.36;102000.56;5092368;28;20060;-32
2022/08/01 10:24:28;;;;;;;5.05;1.10;;;;;;;30.22;40.22;102011.31;5093065;28;20101;-34
2022/08/01 10:27:04;;;;;;;4.17;1.20;;;;;;;30.43;39.37;102000.66;5093284;28;20040;-31
2022/08/01 10:29:40;;;;;;;4.53;1.10;;;;;;;30.61;39.35;101999.91;5092533;28;20071;-31
2022/08/01 10:32:28;;;;;;;4.43;1.10;;;;;;;30.78;38.11;102010.63;5092609;28;20059;-38
2022/08/01 10:34:56;;;;;;;4.40;1.30;;;;;;;30.78;38.62;102013.50;5092863;28;20140;-34
2022/08/01 10:37:25;;;;;;;4.40;0.93;;;;;;;30.86;39.11;102005.69;5092352;28;20792;-33
2022/08/01 10:39:54;;;;;;;3.97;1.05;;;;;;;30.89;38.83;102011.47;5091555;28;20043;-32
2022/08/01 10:42:43;;;;;;;4.32;1.05;;;;;;;30.82;37.66;102017.22;5092234;28;20044;-36
2022/08/01 10:45:14;;;;;;;4.10;1.10;;;;;;;30.71;38.58;102004.88;5092272;28;20431;-32
2022/08/01 10:47:49;;;;;;;5.13;1.10;;;;;;;30.94;38.38;102001.59;5092450;28;20454;-33
2022/08/01 10:50:25;;;;;;;4.28;0.88;;;;;;;31.05;36.98;102005.28;5092151;28;20048;-40
2022/08/01 10:53:11;;;;;;;2.35;0.68;;;;;;;31.03;35.40;102016.38;5092556;28;20059;-33
2022/08/01 10:55:52;;;;;;;3.25;1.00;;;;;;;30.86;36.22;102011.44;5091616;28;20443;-32
2022/08/01 10:58:27;;;;;;;4.05;0.90;;;;;;;30.83;36.42;102010.22;5091844;28;20052;-33
2022/08/01 11:01:15;;;;;;;4.30;1.08;;;;;;;30.82;35.19;102009.38;5092149;28;20447;-32
2022/08/01 11:03:57;;;;;;;4.43;1.10;;;;;;;30.75;35.87;102018.06;5091995;28;20052;-31
2022/08/01 11:06:40;;;;;;;4.78;0.90;;;;;;;30.87;36.59;102013.09;5092280;28;20055;-31
2022/08/01 11:09:24;;;;;;;3.25;0.80;;;;;;;30.82;36.04;102014.31;5093053;28;20044;-35
2022/08/01 11:12:08;;;;;;;4.07;0.82;;;;;;;30.75;36.88;102015.16;5090382;28;20123;-34
2022/08/01 11:15:28;;;;;;;6.03;1.10;;;;;;;31.01;36.44;102018.84;5093014;28;20557;-35
2022/08/01 11:18:00;;;;;;;4.18;1.00;;;;;;;31.03;36.25;102010.63;5091232;28;20409;-37
2022/08/01 11:20:32;;;;;;;2.65;0.70;;;;;;;30.92;36.75;102012.69;5093260;28;20420;-33
2022/08/01 11:23:28;;;;;;;3.30;0.75;;;;;;;30.77;33.79;102011.88;5092947;28;20097;-32
2022/08/01 11:26:20;;;;;;;4.05;0.90;;;;;;;30.40;34.90;102015.88;5092247;28;20040;-34
2022/08/01 11:29:17;;;;;;;3.28;0.98;;;;;;;30.23;36.63;102015.84;5092911;28;20047;-40
2022/08/01 11:31:48;;;;;;;4.60;0.90;;;;;;;30.31;38.10;102017.53;5091955;28;20051;-39
2022/08/01 11:34:16;;;;;;;3.70;0.73;;;;;;;30.57;37.27;102025.03;5092678;28;20531;-35
2022/08/01 11:36:46;;;;;;;3.97;0.90;;;;;;;30.59;36.20;102031.19;5092163;28;20409;-40
2022/08/01 11:39:33;;;;;;;3.35;1.00;;;;;;;30.31;35.91;102026.16;5092396;28;20048;-32